Time;durP1;ratioP1;P1;durP2;ratioP2;P2;SDS_P1;SDS_P2;PMS_P1;PMS_P2;Temp;Humidity;BMP_temperature;BMP_pressure;BME280_temperature;BME280_humidity;BME280_pressure;Samples;Min_cycle;Max_cycle;Signal;HPM_P1;HPM_P2
2023/12/26 00:00:58;;;;;;;11.35;7.47;;;;;;;;;;2062739;28;20068;-77
2023/12/26 00:02:19;;;;;;;10.70;7.00;;;;;;;;;;2078146;28;20405;-77
2023/12/26 00:03:40;;;;;;;14.40;7.68;;;;;;;;;;2079083;28;20044;-77
2023/12/26 00:05:01;;;;;;;12.02;7.38;;;;;;;;;;2078796;28;20029;-76
2023/12/26 00:06:22;;;;;;;14.00;6.55;;;;;;;;;;2071906;28;20485;-78
2023/12/26 00:07:43;;;;;;;12.30;7.75;;;;;;;;;;2071717;28;20026;-77
2023/12/26 00:09:04;;;;;;;8.35;6.78;;;;;;;;;;2071308;28;20030;-77
2023/12/26 00:10:25;;;;;;;12.20;6.97;;;;;;;;;;2064552;28;20560;-77
2023/12/26 00:11:46;;;;;;;11.85;7.03;;;;;;;;;;2062196;28;20118;-78
2023/12/26 00:13:07;;;;;;;9.18;6.40;;;;;;;;;;2069507;28;20022;-78
2023/12/26 00:14:28;;;;;;;9.13;6.57;;;;;;;;;;2063816;28;20050;-77
2023/12/26 00:15:50;;;;;;;9.57;7.30;;;;;;;;;;2061391;28;20046;-78
2023/12/26 00:17:11;;;;;;;9.93;6.75;;;;;;;;;;2068799;28;20397;-77
2023/12/26 00:18:32;;;;;;;11.38;7.05;;;;;;;;;;2072163;28;20039;-76
2023/12/26 00:19:53;;;;;;;10.25;7.25;;;;;;;;;;2071458;28;20517;-78
2023/12/26 00:21:14;;;;;;;12.38;6.65;;;;;;;;;;2071379;28;20030;-76
2023/12/26 00:22:35;;;;;;;9.70;6.82;;;;;;;;;;2072626;28;20057;-76
2023/12/26 00:23:56;;;;;;;12.07;6.75;;;;;;;;;;2072291;28;20041;-78
2023/12/26 00:25:17;;;;;;;7.75;6.22;;;;;;;;;;2072160;28;20041;-77
2023/12/26 00:26:38;;;;;;;10.20;7.00;;;;;;;;;;2071067;28;20053;-77
2023/12/26 00:27:59;;;;;;;11.40;6.22;;;;;;;;;;2072633;28;20026;-77
2023/12/26 00:29:20;;;;;;;8.52;6.85;;;;;;;;;;2071758;28;20030;-77
2023/12/26 00:30:41;;;;;;;8.52;7.28;;;;;;;;;;2069471;28;20030;-76
2023/12/26 00:32:02;;;;;;;10.20;6.93;;;;;;;;;;2077844;28;20026;-76
2023/12/26 00:33:23;;;;;;;13.30;7.47;;;;;;;;;;2080305;28;20038;-76
2023/12/26 00:34:44;;;;;;;9.50;7.15;;;;;;;;;;2071127;28;20033;-77
2023/12/26 00:36:05;;;;;;;7.50;6.30;;;;;;;;;;2076915;28;20508;-77
2023/12/26 00:37:26;;;;;;;9.98;6.20;;;;;;;;;;2080285;28;20045;-78
2023/12/26 00:38:47;;;;;;;12.32;6.90;;;;;;;;;;2079584;28;20049;-77
2023/12/26 00:40:08;;;;;;;9.35;6.20;;;;;;;;;;2080781;28;20041;-76
2023/12/26 00:41:29;;;;;;;7.40;6.55;;;;;;;;;;2080592;28;20032;-77
2023/12/26 00:42:50;;;;;;;9.48;6.82;;;;;;;;;;2080429;28;20030;-77
2023/12/26 00:44:11;;;;;;;9.05;6.28;;;;;;;;;;2073151;28;20084;-77
2023/12/26 00:45:32;;;;;;;8.27;6.78;;;;;;;;;;2072981;28;20024;-76
2023/12/26 00:46:53;;;;;;;10.95;5.97;;;;;;;;;;2072546;28;20053;-78
2023/12/26 00:48:14;;;;;;;10.32;7.07;;;;;;;;;;2071738;28;20048;-77
2023/12/26 00:49:35;;;;;;;11.93;6.82;;;;;;;;;;2079670;28;20044;-77
2023/12/26 00:50:56;;;;;;;9.95;6.93;;;;;;;;;;2081662;28;20091;-77
2023/12/26 00:52:17;;;;;;;10.32;6.70;;;;;;;;;;2079355;28;20025;-76
2023/12/26 00:53:38;;;;;;;10.77;7.10;;;;;;;;;;2072818;28;20042;-76
2023/12/26 00:54:59;;;;;;;9.05;6.82;;;;;;;;;;2069544;28;20986;-77
2023/12/26 00:56:21;;;;;;;11.73;7.60;;;;;;;;;;2079939;28;20044;-76
2023/12/26 00:57:42;;;;;;;8.45;6.70;;;;;;;;;;2065583;28;20042;-77
2023/12/26 00:59:02;;;;;;;13.02;7.57;;;;;;;;;;2069588;28;20155;-76
2023/12/26 01:00:23;;;;;;;10.25;6.88;;;;;;;;;;2081341;28;20449;-76
2023/12/26 01:01:44;;;;;;;11.32;7.80;;;;;;;;;;2073961;28;20030;-78
2023/12/26 01:03:05;;;;;;;11.82;7.00;;;;;;;;;;2078681;28;20025;-77
2023/12/26 01:04:26;;;;;;;10.45;7.38;;;;;;;;;;2081730;28;20026;-78
2023/12/26 01:05:50;;;;;;;11.30;7.57;;;;;;;;;;2074071;28;20034;-77
2023/12/26 01:07:11;;;;;;;9.98;6.57;;;;;;;;;;2071745;28;20033;-77
2023/12/26 01:08:32;;;;;;;10.27;7.30;;;;;;;;;;2069155;28;20041;-77
2023/12/26 01:09:54;;;;;;;11.90;7.75;;;;;;;;;;2071139;28;20030;-77
2023/12/26 01:11:15;;;;;;;8.73;6.88;;;;;;;;;;2079311;28;20076;-76
2023/12/26 01:12:36;;;;;;;11.10;7.53;;;;;;;;;;2071493;28;20045;-76
2023/12/26 01:13:57;;;;;;;11.98;7.28;;;;;;;;;;2078883;28;20493;-77
2023/12/26 01:15:18;;;;;;;18.48;8.90;;;;;;;;;;2080795;28;20041;-78
2023/12/26 01:16:39;;;;;;;9.55;7.38;;;;;;;;;;2072822;28;20505;-77
2023/12/26 01:18:00;;;;;;;12.37;7.67;;;;;;;;;;2077826;28;20091;-78
2023/12/26 01:19:21;;;;;;;10.38;6.82;;;;;;;;;;2072700;28;20042;-76
2023/12/26 01:20:42;;;;;;;10.30;7.18;;;;;;;;;;2072885;28;20369;-77
2023/12/26 01:22:03;;;;;;;10.55;7.85;;;;;;;;;;2072961;28;20034;-77
2023/12/26 01:23:24;;;;;;;10.60;7.70;;;;;;;;;;2070403;28;20026;-77
2023/12/26 01:24:45;;;;;;;12.63;7.80;;;;;;;;;;2081082;28;20045;-76
2023/12/26 01:26:06;;;;;;;10.85;7.63;;;;;;;;;;2075888;28;20030;-78
2023/12/26 01:27:27;;;;;;;11.35;8.00;;;;;;;;;;2072725;28;20034;-78
2023/12/26 01:28:47;;;;;;;9.27;7.47;;;;;;;;;;2065922;28;20050;-78
2023/12/26 01:30:09;;;;;;;13.60;6.97;;;;;;;;;;2072775;28;20033;-77
2023/12/26 01:31:33;;;;;;;11.85;7.22;;;;;;;;;;2080950;28;20489;-76
2023/12/26 01:32:54;;;;;;;13.25;8.07;;;;;;;;;;2081401;28;20041;-76
2023/12/26 01:34:15;;;;;;;10.57;7.88;;;;;;;;;;2080691;28;20029;-77
2023/12/26 01:35:36;;;;;;;8.80;7.07;;;;;;;;;;2072736;28;20041;-77
2023/12/26 01:36:56;;;;;;;11.77;7.47;;;;;;;;;;2070114;28;20436;-77
2023/12/26 01:38:17;;;;;;;10.63;7.68;;;;;;;;;;2070326;28;20065;-77
2023/12/26 01:39:38;;;;;;;11.52;6.75;;;;;;;;;;2069854;28;20129;-77
2023/12/26 01:40:59;;;;;;;12.50;7.63;;;;;;;;;;2078482;28;20053;-76
2023/12/26 01:42:20;;;;;;;8.88;6.93;;;;;;;;;;2073289;28;20085;-77
2023/12/26 01:43:41;;;;;;;8.50;7.10;;;;;;;;;;2077776;28;20488;-78
2023/12/26 01:45:03;;;;;;;11.65;7.75;;;;;;;;;;2080996;28;20125;-79
2023/12/26 01:46:24;;;;;;;7.85;7.05;;;;;;;;;;2072541;28;20033;-76
2023/12/26 01:47:50;;;;;;;9.43;7.25;;;;;;;;;;2072718;28;20401;-77
2023/12/26 01:49:11;;;;;;;11.02;7.45;;;;;;;;;;2063514;28;20054;-77
2023/12/26 01:50:32;;;;;;;10.18;7.32;;;;;;;;;;2060325;28;20522;-77
2023/12/26 01:51:54;;;;;;;10.63;7.18;;;;;;;;;;2077728;28;20030;-76
2023/12/26 01:53:14;;;;;;;7.60;6.53;;;;;;;;;;2077802;28;20497;-76
2023/12/26 01:54:36;;;;;;;9.68;8.20;;;;;;;;;;2075127;28;20556;-77
2023/12/26 01:55:57;;;;;;;;;;;;;;;;;;2075249;28;20110;-77
2023/12/26 01:57:18;;;;;;;9.15;7.07;;;;;;;;;;2073646;28;19919;-77
2023/12/26 01:58:39;;;;;;;8.25;6.78;;;;;;;;;;2076777;28;20059;-77
2023/12/26 02:00:01;;;;;;;10.73;7.38;;;;;;;;;;2073613;28;20461;-77
2023/12/26 02:01:22;;;;;;;10.30;7.68;;;;;;;;;;2075742;28;20087;-77
2023/12/26 02:02:44;;;;;;;11.07;7.30;;;;;;;;;;2080434;28;20034;-78
2023/12/26 02:04:05;;;;;;;10.75;6.85;;;;;;;;;;2073146;28;20029;-77
2023/12/26 02:05:26;;;;;;;9.63;7.13;;;;;;;;;;2077396;28;20073;-77
2023/12/26 02:06:48;;;;;;;9.73;7.55;;;;;;;;;;2066967;28;20026;-78
2023/12/26 02:08:10;;;;;;;9.02;6.78;;;;;;;;;;2070592;28;20048;-77
2023/12/26 02:09:32;;;;;;;9.30;7.25;;;;;;;;;;2066732;28;20035;-77
2023/12/26 02:10:53;;;;;;;11.88;7.68;;;;;;;;;;2069642;28;20038;-78
2023/12/26 02:12:14;;;;;;;9.30;7.30;;;;;;;;;;2073629;28;20037;-77
2023/12/26 02:13:36;;;;;;;9.77;7.63;;;;;;;;;;2080849;28;20021;-77
2023/12/26 02:14:58;;;;;;;10.30;6.70;;;;;;;;;;2080708;28;20083;-79
2023/12/26 02:16:21;;;;;;;9.00;7.28;;;;;;;;;;2073874;28;20030;-77
2023/12/26 02:17:43;;;;;;;10.38;7.65;;;;;;;;;;2078501;28;20029;-77
2023/12/26 02:19:04;;;;;;;10.35;7.40;;;;;;;;;;2072314;28;20096;-77
2023/12/26 02:20:25;;;;;;;8.63;7.22;;;;;;;;;;2073415;28;20034;-78
2023/12/26 02:21:46;;;;;;;9.10;7.35;;;;;;;;;;2072721;28;20025;-79
2023/12/26 02:23:07;;;;;;;10.73;7.40;;;;;;;;;;2084875;28;20028;-78
2023/12/26 02:24:28;;;;;;;10.50;7.57;;;;;;;;;;2076994;28;20022;-77
2023/12/26 02:25:49;;;;;;;12.73;7.97;;;;;;;;;;2081809;28;20044;-78
2023/12/26 02:27:24;;;;;;;11.85;8.32;;;;;;;;;;2071965;28;20022;-77
2023/12/26 02:28:45;;;;;;;11.25;8.90;;;;;;;;;;2068379;28;20038;-78
2023/12/26 02:30:07;;;;;;;11.35;8.20;;;;;;;;;;2066829;28;20030;-77
2023/12/26 02:31:28;;;;;;;;;;;;;;;;;;2073586;28;20026;-79
2023/12/26 02:32:49;;;;;;;9.75;8.20;;;;;;;;;;2072886;28;19917;-80
2023/12/26 02:34:10;;;;;;;12.82;8.52;;;;;;;;;;2056381;28;20046;-80
2023/12/26 02:35:31;;;;;;;11.63;8.60;;;;;;;;;;2062163;28;20038;-78
2023/12/26 02:36:52;;;;;;;13.50;9.38;;;;;;;;;;2056256;28;20506;-78
2023/12/26 02:38:13;;;;;;;11.18;8.13;;;;;;;;;;2062056;28;20038;-78
2023/12/26 02:39:34;;;;;;;12.20;9.15;;;;;;;;;;2063934;28;20039;-77
2023/12/26 02:40:55;;;;;;;12.25;8.43;;;;;;;;;;2064593;28;20449;-78
2023/12/26 02:42:20;;;;;;;11.68;8.93;;;;;;;;;;2063876;28;20026;-78
2023/12/26 02:43:41;;;;;;;13.77;9.02;;;;;;;;;;2063965;28;20026;-79
2023/12/26 02:45:02;;;;;;;11.15;8.98;;;;;;;;;;2064556;28;20038;-78
2023/12/26 02:46:23;;;;;;;10.32;8.20;;;;;;;;;;2065321;28;20030;-79
2023/12/26 02:47:44;;;;;;;10.20;7.97;;;;;;;;;;2064701;28;20033;-78
2023/12/26 02:49:05;;;;;;;12.15;9.57;;;;;;;;;;2071620;28;20041;-78
2023/12/26 02:50:26;;;;;;;11.88;8.20;;;;;;;;;;2079144;28;20037;-78
2023/12/26 02:51:47;;;;;;;11.60;9.07;;;;;;;;;;2064190;28;20081;-78
2023/12/26 02:53:08;;;;;;;12.48;8.70;;;;;;;;;;2064095;28;20034;-80
2023/12/26 02:54:29;;;;;;;9.82;7.78;;;;;;;;;;2070447;28;20049;-78
2023/12/26 02:55:52;;;;;;;10.35;7.85;;;;;;;;;;2070063;28;20042;-77
2023/12/26 02:57:13;;;;;;;12.50;8.57;;;;;;;;;;2072751;28;20033;-79
2023/12/26 02:58:34;;;;;;;15.52;9.27;;;;;;;;;;2060812;28;20031;-77
2023/12/26 02:59:54;;;;;;;12.70;7.75;;;;;;;;;;2072184;28;20025;-77
2023/12/26 03:01:15;;;;;;;14.13;7.93;;;;;;;;;;2066904;28;20030;-77
2023/12/26 03:02:36;;;;;;;12.07;7.38;;;;;;;;;;2069046;28;20430;-77
2023/12/26 03:03:57;;;;;;;12.90;8.05;;;;;;;;;;2072109;28;20022;-77
2023/12/26 03:05:18;;;;;;;11.73;7.35;;;;;;;;;;2063485;28;20031;-78
2023/12/26 03:06:39;;;;;;;11.63;7.97;;;;;;;;;;2069360;28;20030;-78
2023/12/26 03:08:00;;;;;;;12.32;8.43;;;;;;;;;;2064624;28;20034;-77
2023/12/26 03:09:22;;;;;;;11.27;7.88;;;;;;;;;;2075193;28;20037;-79
2023/12/26 03:10:43;;;;;;;10.75;7.57;;;;;;;;;;2072453;28;20038;-77
2023/12/26 03:12:04;;;;;;;10.90;7.57;;;;;;;;;;2070454;28;20405;-79
2023/12/26 03:13:25;;;;;;;12.00;8.05;;;;;;;;;;2070349;28;20401;-77
2023/12/26 03:14:45;;;;;;;11.65;6.93;;;;;;;;;;2063707;28;20034;-76
2023/12/26 03:16:07;;;;;;;15.15;7.95;;;;;;;;;;2064210;28;20030;-77
2023/12/26 03:17:28;;;;;;;10.77;6.72;;;;;;;;;;2069277;28;20038;-77
2023/12/26 03:18:49;;;;;;;15.27;7.78;;;;;;;;;;2072995;28;20022;-77
2023/12/26 03:20:10;;;;;;;8.40;6.80;;;;;;;;;;2072416;28;20112;-76
2023/12/26 03:21:31;;;;;;;10.48;6.88;;;;;;;;;;2063713;28;20022;-76
2023/12/26 03:22:52;;;;;;;12.43;6.15;;;;;;;;;;2072101;28;20028;-76
2023/12/26 03:24:12;;;;;;;10.95;6.82;;;;;;;;;;2074346;28;20053;-76
2023/12/26 03:25:34;;;;;;;12.32;7.70;;;;;;;;;;2066500;28;20035;-77
2023/12/26 03:26:55;;;;;;;13.20;7.75;;;;;;;;;;2068013;28;20026;-78
2023/12/26 03:28:16;;;;;;;9.40;7.13;;;;;;;;;;2068114;28;20030;-77
2023/12/26 03:29:37;;;;;;;9.43;6.95;;;;;;;;;;2069279;28;20049;-77
2023/12/26 03:30:58;;;;;;;9.02;6.00;;;;;;;;;;2077582;28;20109;-77
2023/12/26 03:32:19;;;;;;;8.52;6.50;;;;;;;;;;2070457;28;20037;-78
2023/12/26 03:33:40;;;;;;;13.02;6.70;;;;;;;;;;2077528;28;20056;-78
2023/12/26 03:35:01;;;;;;;8.20;6.20;;;;;;;;;;2075665;28;20099;-78
2023/12/26 03:36:22;;;;;;;7.93;6.47;;;;;;;;;;2079689;28;20405;-78
2023/12/26 03:37:43;;;;;;;11.48;7.38;;;;;;;;;;2079717;28;20025;-77
2023/12/26 03:39:04;;;;;;;11.85;6.55;;;;;;;;;;2080132;28;20398;-78
2023/12/26 03:40:25;;;;;;;8.93;6.00;;;;;;;;;;2071393;28;20493;-77
2023/12/26 03:41:48;;;;;;;8.05;5.90;;;;;;;;;;2071371;28;20037;-78
2023/12/26 03:43:09;;;;;;;7.22;5.97;;;;;;;;;;2071856;28;20534;-77
2023/12/26 03:44:30;;;;;;;15.00;6.07;;;;;;;;;;2070967;28;20147;-77
2023/12/26 03:45:51;;;;;;;9.68;6.13;;;;;;;;;;2071663;28;20049;-78
2023/12/26 03:47:12;;;;;;;14.00;6.10;;;;;;;;;;2073031;28;20029;-78
2023/12/26 03:48:33;;;;;;;11.95;6.68;;;;;;;;;;2064748;28;20038;-78
2023/12/26 03:49:54;;;;;;;8.30;6.93;;;;;;;;;;2070784;28;20038;-79
2023/12/26 03:51:15;;;;;;;10.15;6.20;;;;;;;;;;2064240;28;20046;-79
2023/12/26 03:52:36;;;;;;;10.35;5.80;;;;;;;;;;2056380;28;20459;-78
2023/12/26 03:53:57;;;;;;;18.20;6.70;;;;;;;;;;2060556;28;20038;-79
2023/12/26 03:55:18;;;;;;;11.13;6.35;;;;;;;;;;2071855;28;20415;-78
2023/12/26 03:56:39;;;;;;;9.15;6.53;;;;;;;;;;2077354;28;20037;-79
2023/12/26 03:58:00;;;;;;;11.73;6.85;;;;;;;;;;2071319;28;20038;-78
2023/12/26 03:59:22;;;;;;;10.13;6.72;;;;;;;;;;2072865;28;20048;-77
2023/12/26 04:00:43;;;;;;;9.85;6.68;;;;;;;;;;2062514;28;20039;-77
2023/12/26 04:02:03;;;;;;;12.10;6.38;;;;;;;;;;2062431;28;20037;-79
2023/12/26 04:03:24;;;;;;;9.25;6.22;;;;;;;;;;2062051;28;20030;-78
2023/12/26 04:04:46;;;;;;;10.02;6.32;;;;;;;;;;2061304;28;20026;-78
2023/12/26 04:06:07;;;;;;;10.65;6.43;;;;;;;;;;2061675;28;20023;-78
2023/12/26 04:07:27;;;;;;;13.95;6.25;;;;;;;;;;2068991;28;20022;-78
2023/12/26 04:08:49;;;;;;;11.05;6.28;;;;;;;;;;2062755;28;20098;-78
2023/12/26 04:10:09;;;;;;;12.55;6.28;;;;;;;;;;2061183;28;20039;-79
2023/12/26 04:11:32;;;;;;;10.93;6.47;;;;;;;;;;2064419;28;20419;-79
2023/12/26 04:12:53;;;;;;;9.70;5.65;;;;;;;;;;2061685;28;20557;-79
2023/12/26 04:14:14;;;;;;;12.85;6.50;;;;;;;;;;2062105;28;20410;-78
2023/12/26 04:15:35;;;;;;;8.13;5.60;;;;;;;;;;2064116;28;20026;-78
2023/12/26 04:16:56;;;;;;;8.60;5.82;;;;;;;;;;2054943;28;20622;-78
2023/12/26 04:18:17;;;;;;;14.15;6.95;;;;;;;;;;2061200;28;20035;-79
2023/12/26 04:19:38;;;;;;;10.93;7.35;;;;;;;;;;2046639;28;20039;-79
2023/12/26 04:20:59;;;;;;;10.52;6.55;;;;;;;;;;2061786;28;20235;-78
2023/12/26 04:22:20;;;;;;;10.15;6.75;;;;;;;;;;2064994;28;20030;-79
2023/12/26 04:23:41;;;;;;;22.75;6.70;;;;;;;;;;2065111;28;20023;-79
2023/12/26 04:25:02;;;;;;;13.15;6.60;;;;;;;;;;2064469;28;20061;-79
2023/12/26 04:26:23;;;;;;;13.10;6.93;;;;;;;;;;2080373;28;20091;-79
2023/12/26 04:27:44;;;;;;;12.13;6.72;;;;;;;;;;2066883;28;20038;-80
2023/12/26 04:29:05;;;;;;;18.33;7.40;;;;;;;;;;2069102;28;20029;-79
2023/12/26 04:30:26;;;;;;;12.55;6.38;;;;;;;;;;2066242;28;20101;-78
2023/12/26 04:31:47;;;;;;;11.60;6.40;;;;;;;;;;2062752;28;20030;-79
2023/12/26 04:33:09;;;;;;;11.55;6.85;;;;;;;;;;2063994;28;20401;-78
2023/12/26 04:34:30;;;;;;;10.20;5.88;;;;;;;;;;2072427;28;20477;-79
2023/12/26 04:35:51;;;;;;;17.70;6.63;;;;;;;;;;2072912;28;20104;-78
2023/12/26 04:37:12;;;;;;;11.82;6.15;;;;;;;;;;2065948;28;20406;-79
2023/12/26 04:38:33;;;;;;;9.25;6.45;;;;;;;;;;2063277;28;20034;-78
2023/12/26 04:39:54;;;;;;;11.90;6.05;;;;;;;;;;2078068;28;20041;-78
2023/12/26 04:41:15;;;;;;;8.15;6.45;;;;;;;;;;2074273;28;20068;-79
2023/12/26 04:42:36;;;;;;;13.52;6.70;;;;;;;;;;2070859;28;20030;-78
2023/12/26 04:43:57;;;;;;;17.33;6.07;;;;;;;;;;2080040;28;20030;-79
2023/12/26 04:45:18;;;;;;;14.27;6.60;;;;;;;;;;2068008;28;20037;-79
2023/12/26 04:46:39;;;;;;;14.85;6.65;;;;;;;;;;2080519;28;20037;-79
2023/12/26 04:48:04;;;;;;;16.33;6.75;;;;;;;;;;2067459;28;20034;-80
2023/12/26 04:49:25;;;;;;;10.80;5.97;;;;;;;;;;2071769;28;20482;-78
2023/12/26 04:50:46;;;;;;;12.75;5.80;;;;;;;;;;2070481;28;20494;-79
2023/12/26 04:52:07;;;;;;;13.05;6.43;;;;;;;;;;2072776;28;20034;-78
2023/12/26 04:53:28;;;;;;;12.95;6.78;;;;;;;;;;2079590;28;20500;-78
2023/12/26 04:54:49;;;;;;;10.60;6.05;;;;;;;;;;2069012;28;20031;-79
2023/12/26 04:56:14;;;;;;;9.67;6.60;;;;;;;;;;2071340;28;20045;-79
2023/12/26 04:57:35;;;;;;;15.25;6.88;;;;;;;;;;2073305;28;20382;-79
2023/12/26 04:58:56;;;;;;;12.15;6.30;;;;;;;;;;2062034;28;20037;-78
2023/12/26 05:00:17;;;;;;;10.30;6.60;;;;;;;;;;2078312;28;20048;-77
2023/12/26 05:01:44;;;;;;;9.88;6.53;;;;;;;;;;2067197;28;20497;-79
2023/12/26 05:03:05;;;;;;;11.05;6.55;;;;;;;;;;2063639;28;20034;-79
2023/12/26 05:04:26;;;;;;;15.23;6.40;;;;;;;;;;2078915;28;20385;-78
2023/12/26 05:05:47;;;;;;;13.23;6.57;;;;;;;;;;2068595;28;20053;-79
2023/12/26 05:07:08;;;;;;;10.82;6.03;;;;;;;;;;2063417;28;20026;-80
2023/12/26 05:08:29;;;;;;;13.75;6.57;;;;;;;;;;2070516;28;20081;-79
2023/12/26 05:09:50;;;;;;;8.73;5.90;;;;;;;;;;2059363;28;20039;-78
2023/12/26 05:11:20;;;;;;;12.02;5.70;;;;;;;;;;2070401;28;20034;-79
2023/12/26 05:12:40;;;;;;;10.82;6.47;;;;;;;;;;2059794;28;20062;-79
2023/12/26 05:14:01;;;;;;;12.20;6.10;;;;;;;;;;2062809;28;20108;-79
2023/12/26 05:15:22;;;;;;;8.10;5.95;;;;;;;;;;2062428;28;20035;-80
2023/12/26 05:16:44;;;;;;;10.25;7.07;;;;;;;;;;2062986;28;20034;-79
2023/12/26 05:18:05;;;;;;;8.63;5.60;;;;;;;;;;2062846;28;20026;-79
2023/12/26 05:19:26;;;;;;;10.15;6.55;;;;;;;;;;2062578;28;20435;-80
2023/12/26 05:20:47;;;;;;;16.95;7.47;;;;;;;;;;2057143;28;20043;-79
2023/12/26 05:22:08;;;;;;;12.88;6.35;;;;;;;;;;2062722;28;20478;-78
2023/12/26 05:23:29;;;;;;;11.82;5.55;;;;;;;;;;2064503;28;20088;-78
2023/12/26 05:24:50;;;;;;;12.45;6.55;;;;;;;;;;2057324;28;20023;-79
2023/12/26 05:26:11;;;;;;;12.57;6.60;;;;;;;;;;2062130;28;20030;-79
2023/12/26 05:27:32;;;;;;;11.38;5.88;;;;;;;;;;2057384;28;20019;-78
2023/12/26 05:28:53;;;;;;;11.52;6.95;;;;;;;;;;2063145;28;20061;-78
2023/12/26 05:30:14;;;;;;;13.07;6.53;;;;;;;;;;2064460;28;20564;-79
2023/12/26 05:31:35;;;;;;;9.73;6.10;;;;;;;;;;2068479;28;20041;-78
2023/12/26 05:32:56;;;;;;;13.15;6.63;;;;;;;;;;2065115;28;20030;-79
2023/12/26 05:34:18;;;;;;;12.07;6.70;;;;;;;;;;2064770;28;20030;-78
2023/12/26 05:35:39;;;;;;;10.73;6.45;;;;;;;;;;2070765;28;20034;-79
2023/12/26 05:37:00;;;;;;;13.35;7.25;;;;;;;;;;2064611;28;20034;-79
2023/12/26 05:38:21;;;;;;;10.93;6.32;;;;;;;;;;2065425;28;20022;-79
2023/12/26 05:39:43;;;;;;;14.50;6.35;;;;;;;;;;2063219;28;20181;-79
2023/12/26 05:41:04;;;;;;;12.13;6.53;;;;;;;;;;2057019;28;20027;-79
2023/12/26 05:42:26;;;;;;;10.70;6.22;;;;;;;;;;2057095;28;20023;-78
2023/12/26 05:43:47;;;;;;;12.85;7.28;;;;;;;;;;2057669;28;20082;-79
2023/12/26 05:45:07;;;;;;;11.13;6.43;;;;;;;;;;2057199;28;20026;-78
2023/12/26 05:46:29;;;;;;;10.93;6.75;;;;;;;;;;2057409;28;20031;-78
2023/12/26 05:47:50;;;;;;;12.57;6.72;;;;;;;;;;2050516;28;20035;-79
2023/12/26 05:49:10;;;;;;;10.48;6.57;;;;;;;;;;2053642;28;20029;-78
2023/12/26 05:50:32;;;;;;;15.82;6.70;;;;;;;;;;2060168;28;20043;-79
2023/12/26 05:51:52;;;;;;;13.60;7.40;;;;;;;;;;2072635;28;20026;-78
2023/12/26 05:53:13;;;;;;;15.77;7.00;;;;;;;;;;2072384;28;20038;-78
2023/12/26 05:54:35;;;;;;;16.33;6.95;;;;;;;;;;2078341;28;20045;-78
2023/12/26 05:55:57;;;;;;;12.18;6.53;;;;;;;;;;2076568;28;20030;-78
2023/12/26 05:57:17;;;;;;;11.50;6.85;;;;;;;;;;2072747;28;20038;-79
2023/12/26 05:58:39;;;;;;;11.88;7.57;;;;;;;;;;2081680;28;20032;-77
2023/12/26 06:00:00;;;;;;;16.88;7.15;;;;;;;;;;2080748;28;20033;-77
2023/12/26 06:01:21;;;;;;;12.30;6.57;;;;;;;;;;2082219;28;20528;-77
2023/12/26 06:02:42;;;;;;;16.17;7.70;;;;;;;;;;2071812;28;20022;-77
2023/12/26 06:04:03;;;;;;;11.95;6.10;;;;;;;;;;2078396;28;20022;-80
2023/12/26 06:05:24;;;;;;;12.55;5.88;;;;;;;;;;2072035;28;20061;-78
2023/12/26 06:06:45;;;;;;;18.85;6.68;;;;;;;;;;2079640;28;20026;-77
2023/12/26 06:08:07;;;;;;;14.23;7.05;;;;;;;;;;2079520;28;20064;-77
2023/12/26 06:09:28;;;;;;;10.48;6.53;;;;;;;;;;2071980;28;20092;-77
2023/12/26 06:10:49;;;;;;;13.98;6.63;;;;;;;;;;2079193;28;20119;-80
2023/12/26 06:12:10;;;;;;;12.57;7.03;;;;;;;;;;2081175;28;20113;-77
2023/12/26 06:13:31;;;;;;;15.55;6.88;;;;;;;;;;2071071;28;20096;-77
2023/12/26 06:14:52;;;;;;;12.65;6.50;;;;;;;;;;2078721;28;20017;-77
2023/12/26 06:16:13;;;;;;;14.50;6.50;;;;;;;;;;2072438;28;20113;-78
2023/12/26 06:17:36;;;;;;;17.50;7.75;;;;;;;;;;2077467;28;20141;-77
2023/12/26 06:18:56;;;;;;;17.52;7.15;;;;;;;;;;2072137;28;20069;-78
2023/12/26 06:20:21;;;;;;;16.05;6.70;;;;;;;;;;2063954;28;20031;-78
2023/12/26 06:21:42;;;;;;;13.80;6.53;;;;;;;;;;2070633;28;20465;-77
2023/12/26 06:23:03;;;;;;;18.70;7.45;;;;;;;;;;2073282;28;20033;-78
2023/12/26 06:24:24;;;;;;;13.55;7.13;;;;;;;;;;2072382;28;20145;-77
2023/12/26 06:25:46;;;;;;;13.57;6.68;;;;;;;;;;2073610;28;20430;-77
2023/12/26 06:27:06;;;;;;;11.25;6.57;;;;;;;;;;2073293;28;20034;-80
2023/12/26 06:28:27;;;;;;;14.13;6.68;;;;;;;;;;2072477;28;20034;-77
2023/12/26 06:29:48;;;;;;;12.80;7.03;;;;;;;;;;2072153;28;20034;-78
2023/12/26 06:31:14;;;;;;;13.77;7.05;;;;;;;;;;2073114;28;20081;-77
2023/12/26 06:32:35;;;;;;;14.95;7.20;;;;;;;;;;2072041;28;20033;-77
2023/12/26 06:33:56;;;;;;;14.65;6.85;;;;;;;;;;2078478;28;20029;-77
2023/12/26 06:35:17;;;;;;;13.65;6.80;;;;;;;;;;2063850;28;20041;-77
2023/12/26 06:36:37;;;;;;;12.77;6.90;;;;;;;;;;2070284;28;20420;-77
2023/12/26 06:37:58;;;;;;;17.50;7.32;;;;;;;;;;2072544;28;20156;-79
2023/12/26 06:39:19;;;;;;;15.60;8.27;;;;;;;;;;2071971;28;20030;-78
2023/12/26 06:40:40;;;;;;;11.00;6.65;;;;;;;;;;2072170;28;20049;-77
2023/12/26 06:42:02;;;;;;;17.17;7.27;;;;;;;;;;2072633;28;20026;-79
2023/12/26 06:43:23;;;;;;;14.60;7.38;;;;;;;;;;2073695;28;20033;-79
2023/12/26 06:44:44;;;;;;;11.88;6.40;;;;;;;;;;2064746;28;20065;-79
2023/12/26 06:46:05;;;;;;;16.60;7.43;;;;;;;;;;2070029;28;20085;-78
2023/12/26 06:47:26;;;;;;;14.65;6.85;;;;;;;;;;2071712;28;20030;-79
2023/12/26 06:48:48;;;;;;;13.13;7.00;;;;;;;;;;2072096;28;20482;-78
2023/12/26 06:50:09;;;;;;;14.13;8.02;;;;;;;;;;2072235;28;20109;-78
2023/12/26 06:51:30;;;;;;;17.48;7.20;;;;;;;;;;2071177;28;20037;-79
2023/12/26 06:52:50;;;;;;;15.27;7.72;;;;;;;;;;2073044;28;20041;-77
2023/12/26 06:54:11;;;;;;;15.55;7.65;;;;;;;;;;2072249;28;20041;-78
2023/12/26 06:55:32;;;;;;;15.40;6.95;;;;;;;;;;2064896;28;20026;-78
2023/12/26 06:56:53;;;;;;;15.57;6.85;;;;;;;;;;2078992;28;20078;-79
2023/12/26 06:58:14;;;;;;;13.48;7.45;;;;;;;;;;2082595;28;20029;-78
2023/12/26 06:59:35;;;;;;;15.85;7.35;;;;;;;;;;2085121;28;20064;-78
2023/12/26 07:00:56;;;;;;;16.10;7.60;;;;;;;;;;2073308;28;20041;-78
2023/12/26 07:02:17;;;;;;;13.52;7.65;;;;;;;;;;2072413;28;20030;-79
2023/12/26 07:03:38;;;;;;;15.48;7.47;;;;;;;;;;2073180;28;20089;-78
2023/12/26 07:04:59;;;;;;;13.00;7.55;;;;;;;;;;2075571;28;20033;-79
2023/12/26 07:06:20;;;;;;;15.88;7.82;;;;;;;;;;2083714;28;20033;-78
2023/12/26 07:07:41;;;;;;;11.18;7.05;;;;;;;;;;2081128;28;20052;-78
2023/12/26 07:09:04;;;;;;;16.38;7.32;;;;;;;;;;2072766;28;20034;-79
2023/12/26 07:10:25;;;;;;;14.40;7.35;;;;;;;;;;2085606;28;20032;-78
2023/12/26 07:11:48;;;;;;;17.02;7.10;;;;;;;;;;2074815;28;20037;-78
2023/12/26 07:13:09;;;;;;;12.25;6.75;;;;;;;;;;2083198;28;20087;-78
2023/12/26 07:14:30;;;;;;;12.20;6.82;;;;;;;;;;2081020;28;20033;-80
2023/12/26 07:15:52;;;;;;;15.48;6.72;;;;;;;;;;2077277;28;20026;-78
2023/12/26 07:17:13;;;;;;;18.70;7.90;;;;;;;;;;2077068;28;20033;-78
2023/12/26 07:18:33;;;;;;;16.98;7.95;;;;;;;;;;2077044;28;20413;-78
2023/12/26 07:19:54;;;;;;;12.57;6.72;;;;;;;;;;2078764;28;20048;-78
2023/12/26 07:21:17;;;;;;;21.45;7.40;;;;;;;;;;2080729;28;20037;-78
2023/12/26 07:22:38;;;;;;;16.05;8.13;;;;;;;;;;2082039;28;20398;-78
2023/12/26 07:23:59;;;;;;;12.95;7.78;;;;;;;;;;2080252;28;20030;-78
2023/12/26 07:25:20;;;;;;;13.80;7.95;;;;;;;;;;2071853;28;20647;-78
2023/12/26 07:26:40;;;;;;;15.00;7.88;;;;;;;;;;2087534;28;20545;-78
2023/12/26 07:28:01;;;;;;;13.95;7.43;;;;;;;;;;2072363;28;20046;-78
2023/12/26 07:29:23;;;;;;;13.60;7.05;;;;;;;;;;2070127;28;20112;-78
2023/12/26 07:30:44;;;;;;;16.90;7.43;;;;;;;;;;2073236;28;20478;-78
2023/12/26 07:32:05;;;;;;;14.25;7.32;;;;;;;;;;2068443;28;20041;-78
2023/12/26 07:33:26;;;;;;;11.93;6.30;;;;;;;;;;2065308;28;20041;-78
2023/12/26 07:34:47;;;;;;;14.15;7.22;;;;;;;;;;2064444;28;20038;-78
2023/12/26 07:36:11;;;;;;;17.52;7.50;;;;;;;;;;2064439;28;20035;-78
2023/12/26 07:37:32;;;;;;;16.75;7.40;;;;;;;;;;2063944;28;20022;-79
2023/12/26 07:38:53;;;;;;;14.55;6.85;;;;;;;;;;2064937;28;20030;-78
2023/12/26 07:40:14;;;;;;;16.80;7.18;;;;;;;;;;2069080;28;20081;-79
2023/12/26 07:41:35;;;;;;;15.10;8.00;;;;;;;;;;2072228;28;20030;-78
2023/12/26 07:42:57;;;;;;;13.75;7.30;;;;;;;;;;2076813;28;20426;-79
2023/12/26 07:44:18;;;;;;;14.85;7.57;;;;;;;;;;2063887;28;20418;-79
2023/12/26 07:45:38;;;;;;;13.85;7.38;;;;;;;;;;2070390;28;20034;-79
2023/12/26 07:47:00;;;;;;;12.20;6.82;;;;;;;;;;2071413;28;20057;-78
2023/12/26 07:48:21;;;;;;;17.98;7.47;;;;;;;;;;2072415;28;20505;-79
2023/12/26 07:49:43;;;;;;;16.92;8.63;;;;;;;;;;2071207;28;20034;-78
2023/12/26 07:51:04;;;;;;;15.57;7.78;;;;;;;;;;2078125;28;20064;-78
2023/12/26 07:52:25;;;;;;;15.10;7.28;;;;;;;;;;2080703;28;20036;-78
2023/12/26 07:53:46;;;;;;;10.25;7.00;;;;;;;;;;2080607;28;20493;-78
2023/12/26 07:55:07;;;;;;;19.17;8.02;;;;;;;;;;2081360;28;20036;-78
2023/12/26 07:56:28;;;;;;;11.95;7.30;;;;;;;;;;2080496;28;20026;-78
2023/12/26 07:57:50;;;;;;;12.85;7.07;;;;;;;;;;2079794;28;20099;-78
2023/12/26 07:59:11;;;;;;;17.73;8.43;;;;;;;;;;2073513;28;20026;-79
2023/12/26 08:00:32;;;;;;;12.50;6.90;;;;;;;;;;2060623;28;20283;-78
2023/12/26 08:01:53;;;;;;;14.52;6.93;;;;;;;;;;2061553;28;20031;-78